sensor_id;sensor_type;location;lat;lon;timestamp;P1;durP1;ratioP1;P2;durP2;ratioP2
10473;SDS011;5284;50.446;7.904;2023-02-28T00:02:54;6.45;;;2.80;;
10473;SDS011;5284;50.446;7.904;2023-02-28T00:07:57;5.47;;;2.83;;
10473;SDS011;5284;50.446;7.904;2023-02-28T00:13:01;16.80;;;3.50;;
10473;SDS011;5284;50.446;7.904;2023-02-28T00:18:07;6.35;;;3.47;;
10473;SDS011;5284;50.446;7.904;2023-02-28T00:23:10;8.30;;;2.85;;
10473;SDS011;5284;50.446;7.904;2023-02-28T00:28:13;6.85;;;2.97;;
10473;SDS011;5284;50.446;7.904;2023-02-28T00:33:17;5.32;;;2.92;;
10473;SDS011;5284;50.446;7.904;2023-02-28T00:38:21;5.70;;;3.08;;
10473;SDS011;5284;50.446;7.904;2023-02-28T00:43:24;13.90;;;3.95;;
10473;SDS011;5284;50.446;7.904;2023-02-28T00:48:28;7.00;;;3.03;;
10473;SDS011;5284;50.446;7.904;2023-02-28T00:53:31;8.07;;;4.07;;
10473;SDS011;5284;50.446;7.904;2023-02-28T00:58:34;13.40;;;4.30;;
10473;SDS011;5284;50.446;7.904;2023-02-28T01:03:38;6.18;;;3.58;;
10473;SDS011;5284;50.446;7.904;2023-02-28T01:08:41;7.15;;;4.38;;
10473;SDS011;5284;50.446;7.904;2023-02-28T01:13:45;8.18;;;5.07;;
10473;SDS011;5284;50.446;7.904;2023-02-28T01:18:49;9.65;;;3.90;;
10473;SDS011;5284;50.446;7.904;2023-02-28T01:23:52;12.23;;;3.40;;
10473;SDS011;5284;50.446;7.904;2023-02-28T01:28:59;10.02;;;3.75;;
10473;SDS011;5284;50.446;7.904;2023-02-28T01:34:03;10.85;;;4.75;;
10473;SDS011;5284;50.446;7.904;2023-02-28T01:39:06;6.28;;;3.35;;
10473;SDS011;5284;50.446;7.904;2023-02-28T01:49:46;10.10;;;3.63;;
10473;SDS011;5284;50.446;7.904;2023-02-28T01:54:51;5.97;;;2.53;;
10473;SDS011;5284;50.446;7.904;2023-02-28T01:59:57;8.80;;;2.90;;
10473;SDS011;5284;50.446;7.904;2023-02-28T02:05:16;6.55;;;2.85;;
10473;SDS011;5284;50.446;7.904;2023-02-28T02:10:21;5.78;;;3.50;;
10473;SDS011;5284;50.446;7.904;2023-02-28T02:15:30;6.78;;;3.70;;
10473;SDS011;5284;50.446;7.904;2023-02-28T02:37:48;5.45;;;3.00;;
10473;SDS011;5284;50.446;7.904;2023-02-28T02:42:55;6.70;;;3.33;;
10473;SDS011;5284;50.446;7.904;2023-02-28T02:48:03;7.18;;;3.42;;
10473;SDS011;5284;50.446;7.904;2023-02-28T02:53:12;5.43;;;3.20;;
10473;SDS011;5284;50.446;7.904;2023-02-28T02:58:20;8.95;;;3.40;;
10473;SDS011;5284;50.446;7.904;2023-02-28T03:03:27;9.13;;;3.33;;
10473;SDS011;5284;50.446;7.904;2023-02-28T03:08:35;5.72;;;3.45;;
10473;SDS011;5284;50.446;7.904;2023-02-28T03:13:44;8.63;;;3.78;;
10473;SDS011;5284;50.446;7.904;2023-02-28T03:18:58;9.18;;;4.00;;
10473;SDS011;5284;50.446;7.904;2023-02-28T03:24:11;10.23;;;4.30;;
10473;SDS011;5284;50.446;7.904;2023-02-28T03:29:22;8.32;;;3.53;;
10473;SDS011;5284;50.446;7.904;2023-02-28T03:34:31;6.82;;;3.80;;
10473;SDS011;5284;50.446;7.904;2023-02-28T03:39:38;8.55;;;3.78;;
10473;SDS011;5284;50.446;7.904;2023-02-28T03:44:45;9.98;;;4.88;;
10473;SDS011;5284;50.446;7.904;2023-02-28T03:49:53;6.72;;;3.83;;
10473;SDS011;5284;50.446;7.904;2023-02-28T03:55:01;11.57;;;4.07;;
10473;SDS011;5284;50.446;7.904;2023-02-28T04:00:09;7.57;;;4.15;;
10473;SDS011;5284;50.446;7.904;2023-02-28T04:05:16;7.40;;;4.10;;
10473;SDS011;5284;50.446;7.904;2023-02-28T04:10:21;9.65;;;3.55;;
10473;SDS011;5284;50.446;7.904;2023-02-28T04:15:24;6.30;;;3.47;;
10473;SDS011;5284;50.446;7.904;2023-02-28T04:20:28;6.75;;;3.75;;
10473;SDS011;5284;50.446;7.904;2023-02-28T04:25:32;7.18;;;3.47;;
10473;SDS011;5284;50.446;7.904;2023-02-28T04:30:35;8.00;;;3.70;;
10473;SDS011;5284;50.446;7.904;2023-02-28T04:35:40;6.28;;;3.78;;
10473;SDS011;5284;50.446;7.904;2023-02-28T04:40:44;5.72;;;3.35;;
10473;SDS011;5284;50.446;7.904;2023-02-28T04:45:47;5.35;;;3.45;;
10473;SDS011;5284;50.446;7.904;2023-02-28T04:50:50;5.22;;;3.28;;
10473;SDS011;5284;50.446;7.904;2023-02-28T04:55:54;6.30;;;2.90;;
10473;SDS011;5284;50.446;7.904;2023-02-28T05:01:01;5.50;;;3.65;;
10473;SDS011;5284;50.446;7.904;2023-02-28T05:06:05;7.45;;;3.63;;
10473;SDS011;5284;50.446;7.904;2023-02-28T05:11:12;5.15;;;3.00;;
10473;SDS011;5284;50.446;7.904;2023-02-28T05:16:17;6.63;;;3.38;;
10473;SDS011;5284;50.446;7.904;2023-02-28T05:21:25;8.27;;;4.05;;
10473;SDS011;5284;50.446;7.904;2023-02-28T05:26:35;14.32;;;3.78;;
10473;SDS011;5284;50.446;7.904;2023-02-28T05:31:39;7.57;;;3.47;;
10473;SDS011;5284;50.446;7.904;2023-02-28T05:36:42;10.35;;;3.42;;
10473;SDS011;5284;50.446;7.904;2023-02-28T05:41:46;8.63;;;3.58;;
10473;SDS011;5284;50.446;7.904;2023-02-28T05:46:50;13.30;;;4.28;;
10473;SDS011;5284;50.446;7.904;2023-02-28T05:51:53;8.30;;;3.53;;
10473;SDS011;5284;50.446;7.904;2023-02-28T05:56:57;5.97;;;3.40;;
10473;SDS011;5284;50.446;7.904;2023-02-28T06:02:00;9.68;;;3.90;;
10473;SDS011;5284;50.446;7.904;2023-02-28T06:07:03;6.95;;;3.53;;
10473;SDS011;5284;50.446;7.904;2023-02-28T06:12:07;6.82;;;3.25;;
10473;SDS011;5284;50.446;7.904;2023-02-28T06:17:11;9.95;;;4.05;;
10473;SDS011;5284;50.446;7.904;2023-02-28T06:22:14;15.25;;;4.15;;
10473;SDS011;5284;50.446;7.904;2023-02-28T06:27:18;6.60;;;3.95;;
10473;SDS011;5284;50.446;7.904;2023-02-28T06:32:21;9.40;;;3.80;;
10473;SDS011;5284;50.446;7.904;2023-02-28T06:37:25;10.02;;;3.70;;
10473;SDS011;5284;50.446;7.904;2023-02-28T06:42:29;13.35;;;3.80;;
10473;SDS011;5284;50.446;7.904;2023-02-28T06:47:33;6.25;;;2.95;;
10473;SDS011;5284;50.446;7.904;2023-02-28T06:52:36;6.55;;;3.17;;
10473;SDS011;5284;50.446;7.904;2023-02-28T06:57:41;9.50;;;4.45;;
10473;SDS011;5284;50.446;7.904;2023-02-28T07:02:43;5.28;;;3.22;;
10473;SDS011;5284;50.446;7.904;2023-02-28T07:07:47;9.25;;;5.72;;
10473;SDS011;5284;50.446;7.904;2023-02-28T07:12:53;9.07;;;4.78;;
10473;SDS011;5284;50.446;7.904;2023-02-28T07:17:56;5.95;;;3.67;;
10473;SDS011;5284;50.446;7.904;2023-02-28T07:22:59;9.80;;;3.85;;
10473;SDS011;5284;50.446;7.904;2023-02-28T07:28:03;9.45;;;5.38;;
10473;SDS011;5284;50.446;7.904;2023-02-28T07:33:06;8.82;;;3.60;;
10473;SDS011;5284;50.446;7.904;2023-02-28T07:38:09;5.45;;;3.28;;
10473;SDS011;5284;50.446;7.904;2023-02-28T07:43:15;7.72;;;3.25;;
10473;SDS011;5284;50.446;7.904;2023-02-28T07:48:18;8.68;;;3.58;;
10473;SDS011;5284;50.446;7.904;2023-02-28T07:53:21;17.90;;;5.72;;
10473;SDS011;5284;50.446;7.904;2023-02-28T07:58:25;19.27;;;6.72;;
10473;SDS011;5284;50.446;7.904;2023-02-28T08:03:30;18.98;;;7.03;;
10473;SDS011;5284;50.446;7.904;2023-02-28T08:08:32;11.95;;;5.30;;
10473;SDS011;5284;50.446;7.904;2023-02-28T08:13:40;14.07;;;4.33;;
10473;SDS011;5284;50.446;7.904;2023-02-28T08:18:45;5.07;;;2.73;;
10473;SDS011;5284;50.446;7.904;2023-02-28T08:23:48;6.78;;;3.67;;
10473;SDS011;5284;50.446;7.904;2023-02-28T08:28:54;19.70;;;5.38;;
10473;SDS011;5284;50.446;7.904;2023-02-28T08:34:04;9.18;;;4.13;;
10473;SDS011;5284;50.446;7.904;2023-02-28T08:39:08;17.70;;;6.82;;
10473;SDS011;5284;50.446;7.904;2023-02-28T08:44:13;8.52;;;3.80;;
10473;SDS011;5284;50.446;7.904;2023-02-28T08:49:15;7.47;;;3.53;;
10473;SDS011;5284;50.446;7.904;2023-02-28T08:54:19;5.13;;;2.40;;
10473;SDS011;5284;50.446;7.904;2023-02-28T08:59:23;9.52;;;2.65;;
10473;SDS011;5284;50.446;7.904;2023-02-28T09:04:26;7.50;;;2.65;;
10473;SDS011;5284;50.446;7.904;2023-02-28T09:09:32;14.93;;;3.00;;
10473;SDS011;5284;50.446;7.904;2023-02-28T09:14:36;7.50;;;2.83;;
10473;SDS011;5284;50.446;7.904;2023-02-28T09:19:39;5.72;;;2.72;;
10473;SDS011;5284;50.446;7.904;2023-02-28T09:24:44;9.18;;;4.70;;
10473;SDS011;5284;50.446;7.904;2023-02-28T09:29:48;4.35;;;2.67;;
10473;SDS011;5284;50.446;7.904;2023-02-28T09:34:51;9.15;;;3.83;;
10473;SDS011;5284;50.446;7.904;2023-02-28T09:39:54;4.75;;;2.40;;
10473;SDS011;5284;50.446;7.904;2023-02-28T09:44:58;8.63;;;2.95;;
10473;SDS011;5284;50.446;7.904;2023-02-28T09:50:03;21.73;;;7.50;;
10473;SDS011;5284;50.446;7.904;2023-02-28T09:55:18;30.83;;;12.10;;
10473;SDS011;5284;50.446;7.904;2023-02-28T10:00:40;16.75;;;6.72;;
10473;SDS011;5284;50.446;7.904;2023-02-28T10:05:43;10.77;;;3.55;;
10473;SDS011;5284;50.446;7.904;2023-02-28T10:10:53;4.30;;;2.50;;
10473;SDS011;5284;50.446;7.904;2023-02-28T10:16:02;8.50;;;4.25;;
10473;SDS011;5284;50.446;7.904;2023-02-28T10:21:10;10.85;;;3.40;;
10473;SDS011;5284;50.446;7.904;2023-02-28T10:26:21;5.25;;;3.13;;
10473;SDS011;5284;50.446;7.904;2023-02-28T10:31:26;7.60;;;3.75;;
10473;SDS011;5284;50.446;7.904;2023-02-28T10:36:29;4.88;;;3.22;;
10473;SDS011;5284;50.446;7.904;2023-02-28T10:41:35;7.72;;;4.00;;
10473;SDS011;5284;50.446;7.904;2023-02-28T10:46:46;10.05;;;3.47;;
10473;SDS011;5284;50.446;7.904;2023-02-28T10:51:53;9.48;;;3.47;;
10473;SDS011;5284;50.446;7.904;2023-02-28T10:57:11;9.20;;;3.25;;
10473;SDS011;5284;50.446;7.904;2023-02-28T11:02:31;9.52;;;5.43;;
10473;SDS011;5284;50.446;7.904;2023-02-28T11:07:37;8.75;;;3.50;;
10473;SDS011;5284;50.446;7.904;2023-02-28T11:18:02;6.05;;;3.75;;
10473;SDS011;5284;50.446;7.904;2023-02-28T11:23:21;4.68;;;3.20;;
10473;SDS011;5284;50.446;7.904;2023-02-28T11:28:27;7.78;;;3.83;;
10473;SDS011;5284;50.446;7.904;2023-02-28T11:33:39;13.10;;;5.50;;
10473;SDS011;5284;50.446;7.904;2023-02-28T11:38:46;8.65;;;4.40;;
10473;SDS011;5284;50.446;7.904;2023-02-28T11:43:54;6.07;;;3.15;;
10473;SDS011;5284;50.446;7.904;2023-02-28T11:49:18;8.40;;;4.28;;
10473;SDS011;5284;50.446;7.904;2023-02-28T12:00:03;8.88;;;3.50;;
10473;SDS011;5284;50.446;7.904;2023-02-28T12:05:23;5.45;;;3.47;;
10473;SDS011;5284;50.446;7.904;2023-02-28T12:10:34;11.13;;;4.43;;
10473;SDS011;5284;50.446;7.904;2023-02-28T12:16:06;10.13;;;5.00;;
10473;SDS011;5284;50.446;7.904;2023-02-28T12:21:34;8.93;;;4.53;;
10473;SDS011;5284;50.446;7.904;2023-02-28T12:26:47;12.02;;;5.63;;
10473;SDS011;5284;50.446;7.904;2023-02-28T12:31:54;7.95;;;3.70;;
10473;SDS011;5284;50.446;7.904;2023-02-28T12:37:07;7.70;;;3.80;;
10473;SDS011;5284;50.446;7.904;2023-02-28T12:42:17;8.02;;;4.88;;
10473;SDS011;5284;50.446;7.904;2023-02-28T12:47:26;9.70;;;3.70;;
10473;SDS011;5284;50.446;7.904;2023-02-28T12:52:33;13.70;;;3.92;;
10473;SDS011;5284;50.446;7.904;2023-02-28T12:57:45;8.10;;;4.25;;
10473;SDS011;5284;50.446;7.904;2023-02-28T13:03:02;11.20;;;3.95;;
10473;SDS011;5284;50.446;7.904;2023-02-28T13:08:31;10.20;;;4.55;;
10473;SDS011;5284;50.446;7.904;2023-02-28T13:13:57;6.90;;;4.38;;
10473;SDS011;5284;50.446;7.904;2023-02-28T13:19:08;11.95;;;4.60;;
10473;SDS011;5284;50.446;7.904;2023-02-28T13:29:45;16.15;;;5.07;;
10473;SDS011;5284;50.446;7.904;2023-02-28T13:40:31;23.10;;;7.82;;
10473;SDS011;5284;50.446;7.904;2023-02-28T13:45:38;14.27;;;5.80;;
10473;SDS011;5284;50.446;7.904;2023-02-28T13:50:48;8.98;;;4.60;;
10473;SDS011;5284;50.446;7.904;2023-02-28T13:55:53;9.55;;;4.47;;
10473;SDS011;5284;50.446;7.904;2023-02-28T14:01:06;7.65;;;4.43;;
10473;SDS011;5284;50.446;7.904;2023-02-28T14:06:19;11.07;;;5.00;;
10473;SDS011;5284;50.446;7.904;2023-02-28T14:11:33;12.48;;;5.57;;
10473;SDS011;5284;50.446;7.904;2023-02-28T14:16:39;6.00;;;4.25;;
10473;SDS011;5284;50.446;7.904;2023-02-28T14:21:48;8.50;;;4.45;;
10473;SDS011;5284;50.446;7.904;2023-02-28T14:27:11;8.70;;;4.68;;
10473;SDS011;5284;50.446;7.904;2023-02-28T14:32:25;9.70;;;3.95;;
10473;SDS011;5284;50.446;7.904;2023-02-28T14:37:36;8.45;;;4.97;;
10473;SDS011;5284;50.446;7.904;2023-02-28T14:42:48;8.38;;;5.47;;
10473;SDS011;5284;50.446;7.904;2023-02-28T14:47:58;12.68;;;5.97;;
10473;SDS011;5284;50.446;7.904;2023-02-28T14:53:02;17.00;;;5.05;;
10473;SDS011;5284;50.446;7.904;2023-02-28T14:58:20;7.95;;;5.18;;
10473;SDS011;5284;50.446;7.904;2023-02-28T15:03:29;10.85;;;5.22;;
10473;SDS011;5284;50.446;7.904;2023-02-28T15:08:34;16.55;;;5.13;;
10473;SDS011;5284;50.446;7.904;2023-02-28T15:13:39;12.55;;;6.18;;
10473;SDS011;5284;50.446;7.904;2023-02-28T15:18:46;10.52;;;4.90;;
10473;SDS011;5284;50.446;7.904;2023-02-28T15:23:54;8.57;;;4.80;;
10473;SDS011;5284;50.446;7.904;2023-02-28T15:34:13;28.55;;;7.80;;
10473;SDS011;5284;50.446;7.904;2023-02-28T15:39:23;6.63;;;4.32;;
10473;SDS011;5284;50.446;7.904;2023-02-28T15:44:33;11.85;;;5.75;;
10473;SDS011;5284;50.446;7.904;2023-02-28T15:49:39;9.45;;;5.03;;
10473;SDS011;5284;50.446;7.904;2023-02-28T15:54:47;25.00;;;9.30;;
10473;SDS011;5284;50.446;7.904;2023-02-28T15:59:54;14.90;;;4.57;;
10473;SDS011;5284;50.446;7.904;2023-02-28T16:05:01;11.02;;;5.57;;
10473;SDS011;5284;50.446;7.904;2023-02-28T16:10:24;9.10;;;4.70;;
10473;SDS011;5284;50.446;7.904;2023-02-28T16:15:31;23.77;;;6.25;;
10473;SDS011;5284;50.446;7.904;2023-02-28T16:20:42;15.68;;;6.13;;
10473;SDS011;5284;50.446;7.904;2023-02-28T16:25:46;20.08;;;7.32;;
10473;SDS011;5284;50.446;7.904;2023-02-28T16:30:52;19.40;;;5.60;;
10473;SDS011;5284;50.446;7.904;2023-02-28T16:35:55;11.20;;;5.40;;
10473;SDS011;5284;50.446;7.904;2023-02-28T16:40:59;13.07;;;6.63;;
10473;SDS011;5284;50.446;7.904;2023-02-28T16:46:04;18.95;;;8.88;;
10473;SDS011;5284;50.446;7.904;2023-02-28T16:51:08;9.68;;;5.13;;
10473;SDS011;5284;50.446;7.904;2023-02-28T16:56:15;9.20;;;5.18;;
10473;SDS011;5284;50.446;7.904;2023-02-28T17:01:22;22.93;;;7.70;;
10473;SDS011;5284;50.446;7.904;2023-02-28T17:06:25;17.95;;;8.45;;
10473;SDS011;5284;50.446;7.904;2023-02-28T17:11:30;29.23;;;10.48;;
10473;SDS011;5284;50.446;7.904;2023-02-28T17:16:37;26.35;;;9.27;;
10473;SDS011;5284;50.446;7.904;2023-02-28T17:21:43;48.53;;;18.58;;
10473;SDS011;5284;50.446;7.904;2023-02-28T17:26:46;55.08;;;18.92;;
10473;SDS011;5284;50.446;7.904;2023-02-28T17:31:51;56.60;;;20.10;;
10473;SDS011;5284;50.446;7.904;2023-02-28T17:36:55;40.78;;;15.68;;
10473;SDS011;5284;50.446;7.904;2023-02-28T17:41:59;52.85;;;21.33;;
10473;SDS011;5284;50.446;7.904;2023-02-28T17:47:03;99.72;;;33.75;;
10473;SDS011;5284;50.446;7.904;2023-02-28T17:52:06;73.18;;;26.75;;
10473;SDS011;5284;50.446;7.904;2023-02-28T17:57:12;39.63;;;16.17;;
10473;SDS011;5284;50.446;7.904;2023-02-28T18:02:18;40.97;;;16.23;;
10473;SDS011;5284;50.446;7.904;2023-02-28T18:07:21;47.95;;;18.77;;
10473;SDS011;5284;50.446;7.904;2023-02-28T18:12:26;48.97;;;20.60;;
10473;SDS011;5284;50.446;7.904;2023-02-28T18:17:32;52.20;;;21.55;;
10473;SDS011;5284;50.446;7.904;2023-02-28T18:22:36;56.25;;;21.58;;
10473;SDS011;5284;50.446;7.904;2023-02-28T18:27:39;62.13;;;21.60;;
10473;SDS011;5284;50.446;7.904;2023-02-28T18:33:01;52.67;;;19.50;;
10473;SDS011;5284;50.446;7.904;2023-02-28T18:38:06;63.72;;;20.17;;
10473;SDS011;5284;50.446;7.904;2023-02-28T18:43:12;56.87;;;19.57;;
10473;SDS011;5284;50.446;7.904;2023-02-28T18:48:16;48.55;;;14.88;;
10473;SDS011;5284;50.446;7.904;2023-02-28T18:53:20;39.97;;;14.68;;
10473;SDS011;5284;50.446;7.904;2023-02-28T18:58:23;57.25;;;22.40;;
10473;SDS011;5284;50.446;7.904;2023-02-28T19:03:30;56.78;;;20.70;;
10473;SDS011;5284;50.446;7.904;2023-02-28T19:08:37;58.00;;;24.25;;
10473;SDS011;5284;50.446;7.904;2023-02-28T19:13:41;50.45;;;21.80;;
10473;SDS011;5284;50.446;7.904;2023-02-28T19:18:46;49.10;;;18.67;;
10473;SDS011;5284;50.446;7.904;2023-02-28T19:23:49;30.90;;;13.07;;
10473;SDS011;5284;50.446;7.904;2023-02-28T19:28:52;27.92;;;10.30;;
10473;SDS011;5284;50.446;7.904;2023-02-28T19:33:56;22.58;;;10.38;;
10473;SDS011;5284;50.446;7.904;2023-02-28T19:38:59;19.67;;;10.40;;
10473;SDS011;5284;50.446;7.904;2023-02-28T19:44:02;47.70;;;19.23;;
10473;SDS011;5284;50.446;7.904;2023-02-28T19:49:07;67.25;;;23.50;;
10473;SDS011;5284;50.446;7.904;2023-02-28T19:54:10;32.28;;;12.15;;
10473;SDS011;5284;50.446;7.904;2023-02-28T19:59:12;26.30;;;11.07;;
10473;SDS011;5284;50.446;7.904;2023-02-28T20:04:33;21.92;;;10.35;;
10473;SDS011;5284;50.446;7.904;2023-02-28T20:09:36;21.55;;;9.55;;
10473;SDS011;5284;50.446;7.904;2023-02-28T20:14:41;72.22;;;22.10;;
10473;SDS011;5284;50.446;7.904;2023-02-28T20:19:45;35.22;;;11.02;;
10473;SDS011;5284;50.446;7.904;2023-02-28T20:24:48;23.25;;;10.40;;
10473;SDS011;5284;50.446;7.904;2023-02-28T20:29:51;22.88;;;8.98;;
10473;SDS011;5284;50.446;7.904;2023-02-28T20:34:55;12.45;;;5.55;;
10473;SDS011;5284;50.446;7.904;2023-02-28T20:39:58;21.98;;;7.93;;
10473;SDS011;5284;50.446;7.904;2023-02-28T20:45:02;19.52;;;7.38;;
10473;SDS011;5284;50.446;7.904;2023-02-28T20:50:07;14.18;;;7.47;;
10473;SDS011;5284;50.446;7.904;2023-02-28T20:55:11;17.07;;;7.93;;
10473;SDS011;5284;50.446;7.904;2023-02-28T21:00:15;12.45;;;6.68;;
10473;SDS011;5284;50.446;7.904;2023-02-28T21:05:21;17.85;;;8.18;;
10473;SDS011;5284;50.446;7.904;2023-02-28T21:11:37;15.73;;;8.00;;
10473;SDS011;5284;50.446;7.904;2023-02-28T21:17:05;15.13;;;8.05;;
10473;SDS011;5284;50.446;7.904;2023-02-28T21:22:12;14.40;;;8.10;;
10473;SDS011;5284;50.446;7.904;2023-02-28T21:27:16;20.35;;;9.23;;
10473;SDS011;5284;50.446;7.904;2023-02-28T21:32:19;19.67;;;8.75;;
10473;SDS011;5284;50.446;7.904;2023-02-28T21:37:24;20.17;;;8.45;;
10473;SDS011;5284;50.446;7.904;2023-02-28T21:42:26;26.10;;;8.30;;
10473;SDS011;5284;50.446;7.904;2023-02-28T21:47:29;17.05;;;8.52;;
10473;SDS011;5284;50.446;7.904;2023-02-28T21:52:34;19.90;;;8.52;;
10473;SDS011;5284;50.446;7.904;2023-02-28T21:57:37;18.45;;;8.90;;
10473;SDS011;5284;50.446;7.904;2023-02-28T22:02:40;20.52;;;9.10;;
10473;SDS011;5284;50.446;7.904;2023-02-28T22:07:44;20.00;;;9.60;;
10473;SDS011;5284;50.446;7.904;2023-02-28T22:12:47;23.77;;;10.38;;
10473;SDS011;5284;50.446;7.904;2023-02-28T22:17:50;27.67;;;10.15;;
10473;SDS011;5284;50.446;7.904;2023-02-28T22:22:55;17.15;;;9.35;;
10473;SDS011;5284;50.446;7.904;2023-02-28T22:27:57;23.92;;;10.85;;
10473;SDS011;5284;50.446;7.904;2023-02-28T22:33:00;21.70;;;9.95;;
10473;SDS011;5284;50.446;7.904;2023-02-28T22:38:05;23.30;;;10.45;;
10473;SDS011;5284;50.446;7.904;2023-02-28T22:43:09;21.63;;;9.85;;
10473;SDS011;5284;50.446;7.904;2023-02-28T22:48:12;19.55;;;10.75;;
10473;SDS011;5284;50.446;7.904;2023-02-28T22:53:16;19.85;;;9.93;;
10473;SDS011;5284;50.446;7.904;2023-02-28T22:58:19;21.02;;;9.95;;
10473;SDS011;5284;50.446;7.904;2023-02-28T23:03:22;22.65;;;10.07;;
10473;SDS011;5284;50.446;7.904;2023-02-28T23:08:27;20.75;;;11.43;;
10473;SDS011;5284;50.446;7.904;2023-02-28T23:13:30;28.70;;;12.82;;
10473;SDS011;5284;50.446;7.904;2023-02-28T23:18:33;24.40;;;11.52;;
10473;SDS011;5284;50.446;7.904;2023-02-28T23:23:37;26.30;;;10.98;;
10473;SDS011;5284;50.446;7.904;2023-02-28T23:28:40;23.77;;;11.98;;
10473;SDS011;5284;50.446;7.904;2023-02-28T23:33:44;30.13;;;11.65;;
10473;SDS011;5284;50.446;7.904;2023-02-28T23:38:48;31.25;;;12.02;;
10473;SDS011;5284;50.446;7.904;2023-02-28T23:43:52;27.67;;;11.25;;
10473;SDS011;5284;50.446;7.904;2023-02-28T23:48:56;25.70;;;11.73;;
10473;SDS011;5284;50.446;7.904;2023-02-28T23:54:01;31.75;;;11.93;;
10473;SDS011;5284;50.446;7.904;2023-02-28T23:59:04;26.40;;;12.23;;
